createdAt,value
2019-02-05T00:00:57.222Z,5.17
2019-02-05T00:03:26.196Z,5.70
2019-02-05T00:05:55.027Z,5.30
2019-02-05T00:08:24.200Z,5.07
2019-02-05T00:10:53.264Z,5.43
2019-02-05T00:13:22.204Z,5.10
2019-02-05T00:15:51.110Z,5.67
2019-02-05T00:18:20.184Z,5.50
2019-02-05T00:20:49.572Z,5.60
2019-02-05T00:23:18.392Z,5.58
2019-02-05T00:25:47.760Z,5.80
2019-02-05T00:28:16.754Z,6.10
2019-02-05T00:30:45.701Z,5.87
2019-02-05T00:33:15.799Z,5.63
2019-02-05T00:35:44.746Z,6.33
2019-02-05T00:38:14.458Z,6.33
2019-02-05T00:40:43.352Z,6.27
2019-02-05T00:43:12.502Z,7.50
2019-02-05T00:45:41.338Z,6.90
2019-02-05T00:48:10.102Z,6.13
2019-02-05T00:50:39.036Z,5.80
2019-02-05T00:53:08.187Z,5.90
2019-02-05T00:55:37.187Z,5.97
2019-02-05T00:58:06.119Z,6.87
2019-02-05T01:00:35.018Z,6.50
2019-02-05T01:03:04.882Z,6.50
2019-02-05T01:05:34.135Z,6.83
2019-02-05T01:08:03.604Z,6.50
2019-02-05T01:10:32.426Z,6.67
2019-02-05T01:13:01.316Z,6.80
2019-02-05T01:15:30.237Z,6.70
2019-02-05T01:17:59.345Z,6.43
2019-02-05T01:20:28.316Z,6.50
2019-02-05T01:22:57.705Z,6.57
2019-02-05T01:25:26.608Z,6.53
2019-02-05T01:27:55.502Z,6.77
2019-02-05T01:30:25.149Z,6.83
2019-02-05T01:32:53.992Z,6.47
2019-02-05T01:35:23.102Z,7.03
2019-02-05T01:37:52.237Z,6.90
2019-02-05T01:40:21.847Z,6.73
2019-02-05T01:42:52.521Z,7.00
2019-02-05T01:45:21.932Z,7.13
2019-02-05T01:47:50.719Z,6.73
2019-02-05T01:50:20.986Z,7.17
2019-02-05T01:52:49.737Z,7.70
2019-02-05T01:55:18.935Z,7.40
2019-02-05T01:57:47.796Z,6.87
2019-02-05T02:00:18.299Z,7.27
2019-02-05T02:02:47.357Z,6.93
2019-02-05T02:05:16.909Z,7.50
2019-02-05T02:07:45.955Z,7.10
2019-02-05T02:10:16.590Z,7.47
2019-02-05T02:12:46.154Z,7.17
2019-02-05T02:15:15.005Z,7.63
2019-02-05T02:17:43.897Z,7.73
2019-02-05T02:20:14.481Z,7.73
2019-02-05T02:22:43.303Z,7.97
2019-02-05T02:25:12.955Z,7.83
2019-02-05T02:27:41.851Z,7.80
2019-02-05T02:30:22.813Z,8.03
2019-02-05T02:32:51.963Z,7.77
2019-02-05T02:35:23.047Z,8.70
2019-02-05T02:37:52.457Z,7.90
2019-02-05T02:40:21.347Z,8.67
2019-02-05T02:42:50.241Z,8.37
2019-02-05T02:45:19.120Z,9.50
2019-02-05T02:47:48.011Z,14.20
2019-02-05T02:50:17.006Z,8.70
2019-02-05T02:52:46.511Z,8.93
2019-02-05T02:55:15.365Z,9.23
2019-02-05T02:57:44.334Z,9.30
2019-02-05T03:00:14.503Z,9.73
2019-02-05T03:02:43.306Z,9.47
2019-02-05T03:05:12.954Z,10.10
2019-02-05T03:07:42.223Z,10.87
2019-02-05T03:10:18.380Z,11.13
2019-02-05T03:13:00.865Z,10.53
2019-02-05T03:15:29.642Z,10.87
2019-02-05T03:17:58.962Z,10.67
2019-02-05T03:20:28.236Z,10.43
2019-02-05T03:22:57.399Z,10.57
2019-02-05T03:25:26.258Z,11.90
2019-02-05T03:27:55.219Z,10.63
2019-02-05T03:30:24.676Z,11.70
2019-02-05T03:32:54.266Z,11.73
2019-02-05T03:35:23.755Z,11.40
2019-02-05T03:37:54.924Z,12.37
2019-02-05T03:40:40.879Z,12.23
2019-02-05T03:43:09.751Z,12.13
2019-02-05T03:45:38.750Z,11.80
2019-02-05T03:48:07.995Z,11.17
2019-02-05T03:50:40.038Z,12.40
2019-02-05T03:53:10.502Z,12.00
2019-02-05T03:56:10.591Z,12.57
2019-02-05T03:59:08.243Z,13.50
2019-02-05T04:01:45.147Z,13.20
2019-02-05T04:04:48.631Z,13.80
2019-02-05T04:07:45.863Z,13.83
2019-02-05T04:10:33.064Z,14.15
2019-02-05T04:13:12.582Z,14.73
2019-02-05T04:16:03.692Z,15.53
2019-02-05T04:18:51.689Z,15.23
2019-02-05T04:21:42.389Z,15.93
2019-02-05T04:24:30.262Z,15.37
2019-02-05T04:27:43.383Z,16.37
2019-02-05T04:30:26.908Z,16.67
2019-02-05T04:33:20.888Z,15.93
2019-02-05T04:36:18.796Z,17.87
2019-02-05T04:38:51.864Z,18.40
2019-02-05T04:41:52.164Z,16.60
2019-02-05T04:44:28.076Z,17.32
2019-02-05T04:47:09.430Z,18.63
2019-02-05T04:50:03.856Z,18.03
2019-02-05T04:52:50.512Z,18.17
2019-02-05T04:55:38.386Z,18.37
2019-02-05T04:58:30.631Z,19.17
2019-02-05T05:01:12.122Z,19.20
2019-02-05T05:04:02.892Z,19.30
2019-02-05T05:06:39.274Z,19.53
2019-02-05T05:09:10.367Z,19.00
2019-02-05T05:11:41.136Z,19.17
2019-02-05T05:14:10.015Z,20.67
2019-02-05T05:16:38.836Z,20.43
2019-02-05T05:19:08.247Z,20.40
2019-02-05T05:21:37.526Z,20.83
2019-02-05T05:24:06.513Z,20.83
2019-02-05T05:26:35.729Z,20.00
2019-02-05T05:29:05.106Z,19.37
2019-02-05T05:31:33.919Z,20.03
2019-02-05T05:34:04.586Z,20.47
2019-02-05T05:36:33.435Z,21.40
2019-02-05T05:39:02.483Z,20.60
2019-02-05T05:41:31.522Z,21.43
2019-02-05T05:44:00.569Z,20.63
2019-02-05T05:46:29.446Z,21.47
2019-02-05T05:48:58.305Z,20.67
2019-02-05T05:51:27.153Z,21.13
2019-02-05T05:53:56.107Z,20.93
2019-02-05T05:56:25.118Z,19.20
2019-02-05T05:58:54.067Z,20.93
2019-02-05T06:01:23.270Z,20.20
2019-02-05T06:03:52.269Z,19.17
2019-02-05T06:06:21.398Z,18.40
2019-02-05T06:08:50.703Z,19.53
2019-02-05T06:11:38.923Z,19.37
2019-02-05T06:14:08.599Z,18.23
2019-02-05T06:16:37.362Z,18.17
2019-02-05T06:19:06.196Z,17.87
2019-02-05T06:21:35.019Z,17.60
2019-02-05T06:24:04.799Z,17.40
2019-02-05T06:26:33.830Z,17.33
2019-02-05T06:29:02.842Z,17.90
2019-02-05T06:31:31.797Z,18.37
2019-02-05T06:34:01.019Z,16.43
2019-02-05T06:36:30.695Z,15.83
2019-02-05T06:38:59.852Z,16.43
2019-02-05T06:41:28.711Z,17.85
2019-02-05T06:43:57.574Z,17.33
2019-02-05T06:46:26.643Z,16.73
2019-02-05T06:48:55.487Z,16.60
2019-02-05T06:51:24.844Z,17.77
2019-02-05T06:53:54.120Z,18.70
2019-02-05T06:56:23.478Z,17.47
2019-02-05T06:58:53.433Z,17.77
2019-02-05T07:01:22.308Z,18.83
2019-02-05T07:03:51.130Z,19.17
2019-02-05T07:06:20.141Z,18.50
2019-02-05T07:08:49.165Z,20.77
2019-02-05T07:11:18.458Z,19.25
2019-02-05T07:13:47.455Z,21.50
2019-02-05T07:16:16.475Z,20.73
2019-02-05T07:18:45.211Z,20.67
2019-02-05T07:21:14.268Z,21.00
2019-02-05T07:23:43.129Z,21.77
2019-02-05T07:26:12.154Z,22.17
2019-02-05T07:28:41.399Z,21.80
2019-02-05T07:31:10.207Z,25.10
2019-02-05T07:33:39.305Z,23.57
2019-02-05T07:36:08.386Z,19.93
2019-02-05T07:38:37.315Z,20.17
2019-02-05T07:41:06.264Z,19.77
2019-02-05T07:43:35.688Z,19.63
2019-02-05T07:46:05.286Z,19.53
2019-02-05T07:48:34.160Z,19.70
2019-02-05T07:51:03.087Z,18.77
2019-02-05T07:53:33.275Z,18.23
2019-02-05T07:56:02.400Z,18.13
2019-02-05T07:58:31.539Z,18.83
2019-02-05T08:01:00.472Z,18.47
2019-02-05T08:03:29.764Z,19.30
2019-02-05T08:05:58.863Z,18.60
2019-02-05T08:08:27.846Z,16.97
2019-02-05T08:10:56.968Z,17.83
2019-02-05T08:13:25.859Z,17.43
2019-02-05T08:15:54.798Z,17.10
2019-02-05T08:18:24.585Z,19.03
2019-02-05T08:20:55.841Z,18.47
2019-02-05T08:23:25.824Z,18.63
2019-02-05T08:25:54.703Z,18.13
2019-02-05T08:28:23.962Z,18.07
2019-02-05T08:30:52.727Z,18.83
2019-02-05T08:33:22.608Z,18.13
2019-02-05T08:35:51.566Z,17.13
2019-02-05T08:38:20.681Z,18.03
2019-02-05T08:40:49.606Z,18.43
2019-02-05T08:43:19.189Z,17.87
2019-02-05T08:45:56.218Z,16.90
2019-02-05T08:48:18.614Z,17.90
2019-02-05T08:50:47.512Z,18.97
2019-02-05T08:53:21.584Z,18.03
2019-02-05T08:55:51.290Z,18.27
2019-02-05T08:58:30.615Z,18.70
2019-02-05T09:00:51.049Z,18.37
2019-02-05T09:03:20.392Z,18.30
2019-02-05T09:05:50.266Z,18.07
2019-02-05T09:08:19.895Z,20.17
2019-02-05T09:10:48.836Z,18.23
2019-02-05T09:13:17.687Z,18.23
2019-02-05T09:15:56.716Z,18.63
2019-02-05T09:18:25.852Z,18.67
2019-02-05T09:20:54.849Z,18.80
2019-02-05T09:23:24.417Z,18.57
2019-02-05T09:25:53.604Z,18.07
2019-02-05T09:28:22.467Z,17.80
2019-02-05T09:30:51.453Z,18.03
2019-02-05T09:33:20.596Z,18.00
2019-02-05T09:35:49.555Z,18.63
2019-02-05T09:38:18.301Z,17.67
2019-02-05T09:40:47.185Z,18.00
2019-02-05T09:43:16.473Z,20.03
2019-02-05T09:45:45.949Z,17.97
2019-02-05T09:48:14.857Z,17.87
2019-02-05T09:50:45.032Z,17.97
2019-02-05T09:53:14.226Z,18.10
2019-02-05T09:55:43.162Z,18.03
2019-02-05T09:58:12.042Z,18.77
2019-02-05T10:00:41.451Z,18.57
2019-02-05T10:03:10.339Z,17.57
2019-02-05T10:05:39.550Z,17.50
2019-02-05T10:08:08.531Z,16.20
2019-02-05T10:10:37.665Z,15.47
2019-02-05T10:13:07.233Z,14.00
2019-02-05T10:15:36.815Z,14.13
2019-02-05T10:18:07.104Z,14.13
2019-02-05T10:20:36.238Z,13.73
2019-02-05T10:23:07.200Z,13.63
2019-02-05T10:25:36.160Z,13.90
2019-02-05T10:28:05.253Z,13.07
2019-02-05T10:30:38.888Z,13.53
2019-02-05T10:33:08.420Z,12.53
2019-02-05T10:35:37.381Z,13.43
2019-02-05T10:38:07.034Z,11.93
2019-02-05T10:40:36.607Z,11.67
2019-02-05T10:43:06.096Z,12.47
2019-02-05T10:45:35.486Z,11.30
2019-02-05T10:48:05.870Z,11.60
2019-02-05T10:50:35.121Z,12.70
2019-02-05T10:53:04.356Z,12.80
2019-02-05T10:55:33.343Z,12.70
2019-02-05T10:58:02.451Z,12.47
2019-02-05T11:00:31.712Z,12.83
2019-02-05T11:03:01.479Z,12.30
2019-02-05T11:05:30.870Z,12.03
2019-02-05T11:07:59.850Z,12.67
2019-02-05T11:10:28.864Z,12.63
2019-02-05T11:12:57.696Z,13.50
2019-02-05T11:15:31.052Z,13.73
2019-02-05T11:18:00.178Z,13.23
2019-02-05T11:20:29.822Z,13.23
2019-02-05T11:22:58.839Z,12.80
2019-02-05T11:25:28.023Z,14.50
2019-02-05T11:27:57.270Z,14.00
2019-02-05T11:30:30.530Z,13.57
2019-02-05T11:32:59.468Z,15.67
2019-02-05T11:35:29.031Z,14.87
2019-02-05T11:37:58.035Z,12.00
2019-02-05T11:40:28.852Z,12.13
2019-02-05T11:42:57.887Z,11.03
2019-02-05T11:45:27.585Z,11.80
2019-02-05T11:47:57.411Z,11.33
2019-02-05T11:50:26.790Z,13.77
2019-02-05T11:52:56.134Z,12.47
2019-02-05T11:55:26.460Z,13.03
2019-02-05T11:57:55.591Z,12.57
2019-02-05T12:00:32.592Z,12.53
2019-02-05T12:03:00.767Z,13.30
2019-02-05T12:05:29.880Z,12.03
2019-02-05T12:07:59.214Z,12.50
2019-02-05T12:10:28.200Z,13.33
2019-02-05T12:12:57.343Z,13.53
2019-02-05T12:15:26.581Z,14.03
2019-02-05T12:17:56.421Z,14.60
2019-02-05T12:20:25.514Z,13.93
2019-02-05T12:22:54.506Z,13.97
2019-02-05T12:25:25.940Z,12.97
2019-02-05T12:27:55.440Z,13.23
2019-02-05T12:30:31.292Z,13.93
2019-02-05T12:33:01.883Z,14.10
2019-02-05T12:35:30.897Z,14.17
2019-02-05T12:38:00.454Z,13.57
2019-02-05T12:40:29.557Z,13.50
2019-02-05T12:42:58.543Z,13.60
2019-02-05T12:45:28.560Z,13.43
2019-02-05T12:47:58.025Z,13.77
2019-02-05T12:50:31.223Z,14.13
2019-02-05T12:53:00.448Z,12.90
2019-02-05T12:55:29.477Z,13.63
2019-02-05T12:57:58.721Z,13.43
2019-02-05T13:00:32.534Z,13.40
2019-02-05T13:03:01.559Z,13.50
2019-02-05T13:05:30.314Z,13.93
2019-02-05T13:07:59.775Z,13.70
2019-02-05T13:10:30.151Z,13.13
2019-02-05T13:12:59.210Z,13.07
2019-02-05T13:15:28.592Z,13.23
2019-02-05T13:17:57.611Z,14.20
2019-02-05T13:20:27.717Z,13.40
2019-02-05T13:22:57.182Z,12.83
2019-02-05T13:25:27.202Z,13.93
2019-02-05T13:27:56.016Z,13.47
2019-02-05T13:30:28.921Z,13.07
2019-02-05T13:32:57.708Z,13.13
2019-02-05T13:35:27.954Z,12.23
2019-02-05T13:37:56.842Z,13.17
2019-02-05T13:40:26.291Z,12.90
2019-02-05T13:42:55.458Z,13.15
2019-02-05T13:45:25.583Z,12.93
2019-02-05T13:47:55.186Z,13.50
2019-02-05T13:50:33.162Z,15.23
2019-02-05T13:52:59.599Z,13.40
2019-02-05T13:55:29.908Z,14.10
2019-02-05T13:57:58.867Z,13.97
2019-02-05T14:00:29.192Z,13.67
2019-02-05T14:02:58.736Z,13.60
2019-02-05T14:05:28.009Z,13.67
2019-02-05T14:07:57.136Z,13.00
2019-02-05T14:10:27.381Z,14.23
2019-02-05T14:12:56.303Z,13.90
2019-02-05T14:15:26.211Z,14.23
2019-02-05T14:17:55.139Z,13.50
2019-02-05T14:20:24.428Z,13.53
2019-02-05T14:22:54.999Z,13.73
2019-02-05T14:25:25.555Z,13.43
2019-02-05T14:27:55.569Z,13.73
2019-02-05T14:30:46.565Z,13.87
2019-02-05T14:33:15.437Z,14.27
2019-02-05T14:35:44.243Z,14.77
2019-02-05T14:38:13.226Z,15.03
2019-02-05T14:40:42.930Z,14.73
2019-02-05T14:43:11.838Z,14.57
2019-02-05T14:45:41.108Z,15.17
2019-02-05T14:48:11.139Z,15.50
2019-02-05T14:50:40.469Z,15.27
2019-02-05T14:53:10.133Z,15.97
2019-02-05T14:55:39.154Z,15.03
2019-02-05T14:58:09.246Z,15.40
2019-02-05T15:00:38.862Z,14.80
2019-02-05T15:03:08.488Z,14.23
2019-02-05T15:05:37.690Z,14.20
2019-02-05T15:08:07.665Z,14.33
2019-02-05T15:10:36.641Z,14.27
2019-02-05T15:13:06.447Z,15.13
2019-02-05T15:15:35.757Z,14.57
2019-02-05T15:18:22.650Z,15.00
2019-02-05T15:20:54.541Z,14.07
2019-02-05T15:23:23.474Z,13.90
2019-02-05T15:25:52.954Z,14.87
2019-02-05T15:28:21.860Z,15.07
2019-02-05T15:30:51.107Z,16.50
2019-02-05T15:33:40.211Z,15.80
2019-02-05T15:36:21.691Z,17.17
2019-02-05T15:38:50.579Z,17.50
2019-02-05T15:41:19.405Z,17.17
2019-02-05T15:43:48.230Z,17.27
2019-02-05T15:46:17.348Z,18.23
2019-02-05T15:48:46.957Z,17.50
2019-02-05T15:51:15.808Z,18.63
2019-02-05T15:53:44.903Z,18.63
2019-02-05T15:56:14.017Z,19.40
2019-02-05T15:58:42.833Z,18.80
2019-02-05T16:01:12.167Z,19.63
2019-02-05T16:03:41.078Z,20.07
2019-02-05T16:06:10.119Z,20.00
2019-02-05T16:08:38.930Z,20.20
2019-02-05T16:11:07.936Z,19.50
2019-02-05T16:13:39.673Z,21.10
2019-02-05T16:16:08.623Z,21.13
2019-02-05T16:18:38.256Z,20.10
2019-02-05T16:21:07.354Z,20.50
2019-02-05T16:23:36.366Z,21.70
2019-02-05T16:26:05.543Z,21.07
2019-02-05T16:28:34.778Z,21.63
2019-02-05T16:31:03.986Z,21.33
2019-02-05T16:33:32.836Z,22.70
2019-02-05T16:36:02.105Z,20.83
2019-02-05T16:38:31.041Z,22.10
2019-02-05T16:40:59.966Z,21.23
2019-02-05T16:43:29.125Z,21.57
2019-02-05T16:45:58.071Z,20.17
2019-02-05T16:48:27.363Z,20.97
2019-02-05T16:50:56.781Z,21.57
2019-02-05T16:53:25.940Z,20.87
2019-02-05T16:55:54.807Z,21.50
2019-02-05T16:58:23.810Z,20.30
2019-02-05T17:00:53.100Z,22.73
2019-02-05T17:03:22.134Z,21.70
2019-02-05T17:05:52.056Z,21.30
2019-02-05T17:08:21.144Z,22.17
2019-02-05T17:10:50.134Z,22.83
2019-02-05T17:13:19.137Z,22.77
2019-02-05T17:15:48.270Z,22.10
2019-02-05T17:18:23.597Z,21.53
2019-02-05T17:20:48.440Z,20.93
2019-02-05T17:23:18.677Z,22.57
2019-02-05T17:25:47.578Z,23.03
2019-02-05T17:28:16.725Z,22.60
2019-02-05T17:30:45.884Z,22.33
2019-02-05T17:33:14.891Z,21.60
2019-02-05T17:35:44.162Z,21.83
2019-02-05T17:38:13.639Z,21.60
2019-02-05T17:40:42.468Z,21.27
2019-02-05T17:43:11.289Z,22.00
2019-02-05T17:45:41.041Z,18.63
2019-02-05T17:48:11.603Z,17.83
2019-02-05T17:50:41.069Z,21.50
2019-02-05T17:53:10.102Z,21.50
2019-02-05T17:55:39.138Z,22.00
2019-02-05T17:58:08.307Z,22.17
2019-02-05T18:00:48.106Z,23.03
2019-02-05T18:03:16.985Z,22.70
2019-02-05T18:05:45.877Z,23.77
2019-02-05T18:08:14.819Z,24.27
2019-02-05T18:10:44.013Z,24.30
2019-02-05T18:13:13.308Z,23.87
2019-02-05T18:15:42.523Z,24.97
2019-02-05T18:18:11.758Z,25.33
2019-02-05T18:20:41.079Z,24.73
2019-02-05T18:23:09.936Z,24.47
2019-02-05T18:25:39.097Z,24.70
2019-02-05T18:28:07.974Z,23.97
2019-02-05T18:30:39.395Z,25.63
2019-02-05T18:33:08.354Z,24.03
2019-02-05T18:35:37.676Z,25.07
2019-02-05T18:38:07.423Z,24.93
2019-02-05T18:40:36.734Z,25.03
2019-02-05T18:43:06.234Z,25.60
2019-02-05T18:45:35.654Z,24.37
2019-02-05T18:48:09.573Z,25.03
2019-02-05T18:50:38.567Z,25.70
2019-02-05T18:53:07.413Z,27.17
2019-02-05T18:55:36.768Z,26.27
2019-02-05T18:58:09.334Z,25.47
2019-02-05T19:00:38.768Z,26.73
2019-02-05T19:03:15.392Z,26.40
2019-02-05T19:05:39.423Z,27.02
2019-02-05T19:08:09.185Z,28.10
2019-02-05T19:10:38.110Z,27.27
2019-02-05T19:13:07.695Z,27.40
2019-02-05T19:15:36.745Z,29.03
2019-02-05T19:18:06.382Z,27.80
2019-02-05T19:20:35.381Z,28.20
2019-02-05T19:23:04.673Z,27.30
2019-02-05T19:26:08.906Z,29.47
2019-02-05T19:28:42.352Z,26.37
2019-02-05T19:31:32.489Z,27.80
2019-02-05T19:34:01.677Z,26.90
2019-02-05T19:36:30.943Z,29.63
2019-02-05T19:39:00.639Z,28.52
2019-02-05T19:41:29.988Z,29.03
2019-02-05T19:43:59.340Z,29.40
2019-02-05T19:46:57.154Z,29.63
2019-02-05T19:49:32.965Z,28.47
2019-02-05T19:52:02.616Z,29.27
2019-02-05T19:54:31.743Z,28.70
2019-02-05T19:57:01.487Z,28.13
2019-02-05T19:59:30.451Z,28.50
2019-02-05T20:01:59.448Z,28.83
2019-02-05T20:04:28.811Z,27.80
2019-02-05T20:06:58.045Z,27.00
2019-02-05T20:09:27.390Z,27.27
2019-02-05T20:11:56.376Z,26.87
2019-02-05T20:14:28.239Z,26.60
2019-02-05T20:16:58.123Z,26.63
2019-02-05T20:19:27.322Z,27.03
2019-02-05T20:21:56.778Z,26.07
2019-02-05T20:24:25.627Z,25.97
2019-02-05T20:26:54.789Z,27.13
2019-02-05T20:29:23.936Z,27.27
2019-02-05T20:31:53.058Z,25.67
2019-02-05T20:34:22.329Z,25.90
2019-02-05T20:36:51.462Z,26.43
2019-02-05T20:39:20.678Z,26.90
2019-02-05T20:41:52.532Z,28.00
2019-02-05T20:44:20.540Z,27.60
2019-02-05T20:46:49.588Z,28.17
2019-02-05T20:49:18.792Z,27.73
2019-02-05T20:51:48.322Z,28.57
2019-02-05T20:54:18.836Z,28.13
2019-02-05T20:56:48.024Z,29.23
2019-02-05T20:59:17.840Z,28.00
2019-02-05T21:01:47.061Z,29.23
2019-02-05T21:04:15.966Z,28.03
2019-02-05T21:06:44.805Z,28.20
2019-02-05T21:09:18.391Z,29.57
2019-02-05T21:11:48.051Z,29.33
2019-02-05T21:14:23.474Z,28.57
2019-02-05T21:16:52.824Z,28.90
2019-02-05T21:19:22.400Z,28.43
2019-02-05T21:21:51.727Z,28.13
2019-02-05T21:24:20.759Z,28.00
2019-02-05T21:26:49.834Z,26.93
2019-02-05T21:29:19.368Z,27.47
2019-02-05T21:31:48.515Z,27.87
2019-02-05T21:34:17.889Z,27.43
2019-02-05T21:36:47.101Z,27.43
2019-02-05T21:39:16.426Z,27.87
2019-02-05T21:41:45.548Z,27.63
2019-02-05T21:44:14.711Z,27.43
2019-02-05T21:46:43.901Z,26.87
2019-02-05T21:49:12.982Z,27.63
2019-02-05T21:51:43.872Z,26.80
2019-02-05T21:54:13.155Z,27.80
2019-02-05T21:56:42.134Z,26.23
2019-02-05T21:59:11.163Z,27.53
2019-02-05T22:01:40.381Z,26.90
2019-02-05T22:04:10.303Z,26.73
2019-02-05T22:06:40.138Z,26.00
2019-02-05T22:09:11.111Z,26.73
2019-02-05T22:11:41.022Z,25.70
2019-02-05T22:14:10.363Z,26.27
2019-02-05T22:16:39.871Z,25.50
2019-02-05T22:19:09.569Z,25.17
2019-02-05T22:21:38.548Z,25.97
2019-02-05T22:24:07.641Z,25.57
2019-02-05T22:26:36.755Z,23.87
2019-02-05T22:29:06.278Z,24.00
2019-02-05T22:31:35.294Z,24.30
2019-02-05T22:34:04.523Z,24.67
2019-02-05T22:36:33.686Z,22.13
2019-02-05T22:39:03.063Z,23.60
2019-02-05T22:41:32.083Z,22.63
2019-02-05T22:44:01.274Z,22.60
2019-02-05T22:46:30.690Z,21.83
2019-02-05T22:48:59.968Z,21.37
2019-02-05T22:51:29.023Z,22.80
2019-02-05T22:53:58.216Z,21.27
2019-02-05T22:56:27.325Z,22.77
2019-02-05T22:58:56.545Z,22.43
2019-02-05T23:01:37.541Z,23.30
2019-02-05T23:04:11.933Z,22.13
2019-02-05T23:06:44.670Z,21.03
2019-02-05T23:09:33.832Z,20.70
2019-02-05T23:12:20.476Z,21.23
2019-02-05T23:14:51.875Z,21.63
2019-02-05T23:17:21.052Z,21.80
2019-02-05T23:19:50.274Z,21.37
2019-02-05T23:22:19.191Z,21.27
2019-02-05T23:24:48.135Z,21.23
2019-02-05T23:27:17.153Z,19.87
2019-02-05T23:29:46.686Z,20.70
2019-02-05T23:32:15.823Z,18.93
2019-02-05T23:34:45.050Z,20.77
2019-02-05T23:37:14.284Z,18.43
2019-02-05T23:39:43.421Z,18.80
2019-02-05T23:42:12.396Z,18.07
2019-02-05T23:44:41.719Z,18.60
2019-02-05T23:47:10.746Z,18.23
2019-02-05T23:49:39.742Z,18.33
2019-02-05T23:52:08.514Z,18.17
2019-02-05T23:54:38.173Z,17.37
2019-02-05T23:57:09.884Z,17.87
2019-02-05T23:59:37.710Z,17.87
